Time;durP1;ratioP1;P1;durP2;ratioP2;P2;SDS_P1;SDS_P2;PMS_P1;PMS_P2;Temp;Humidity;BMP_temperature;BMP_pressure;BME280_temperature;BME280_humidity;BME280_pressure;Samples;Min_cycle;Max_cycle;Signal;HPM_P1;HPM_P2
2023/08/28 00:01:00;;;;;;;2.67;1.60;;;15.20;99.90;;;;;;4997473;28;20079;-47
2023/08/28 00:03:25;;;;;;;1.33;1.17;;;15.20;99.90;;;;;;5013753;28;20035;-51
2023/08/28 00:05:51;;;;;;;1.27;0.95;;;15.20;99.90;;;;;;5013557;28;20112;-48
2023/08/28 00:08:17;;;;;;;1.73;1.20;;;15.10;99.90;;;;;;5013629;28;20378;-48
2023/08/28 00:10:43;;;;;;;2.88;1.10;;;15.00;99.90;;;;;;5031606;28;20021;-56
2023/08/28 00:13:09;;;;;;;3.55;1.10;;;15.00;99.90;;;;;;5013665;28;20065;-59
2023/08/28 00:15:34;;;;;;;1.63;1.45;;;15.00;99.90;;;;;;5013132;28;20056;-54
2023/08/28 00:18:00;;;;;;;4.28;1.00;;;14.90;99.90;;;;;;5014179;28;20032;-58
2023/08/28 00:20:25;;;;;;;3.75;1.30;;;14.90;99.90;;;;;;5013780;28;20060;-55
2023/08/28 00:22:51;;;;;;;1.70;1.48;;;14.80;99.90;;;;;;5031708;28;20061;-57
2023/08/28 00:25:16;;;;;;;1.60;1.10;;;14.80;99.90;;;;;;5014128;28;20021;-54
2023/08/28 00:27:43;;;;;;;5.22;1.73;;;14.80;99.90;;;;;;5014090;28;20558;-54
2023/08/28 00:30:09;;;;;;;4.00;1.48;;;14.70;99.90;;;;;;5013632;28;20120;-57
2023/08/28 00:32:34;;;;;;;2.78;1.38;;;14.70;99.90;;;;;;5013097;28;20109;-53
2023/08/28 00:35:00;;;;;;;1.05;1.05;;;14.70;99.90;;;;;;5013873;28;20039;-56
2023/08/28 00:37:25;;;;;;;2.90;1.02;;;14.70;99.90;;;;;;5031581;28;20025;-55
2023/08/28 00:39:51;;;;;;;2.15;1.10;;;14.70;99.90;;;;;;5013880;28;20021;-54
2023/08/28 00:42:17;;;;;;;5.20;1.33;;;14.70;99.90;;;;;;5013464;28;20060;-55
2023/08/28 00:44:42;;;;;;;4.50;1.27;;;14.70;99.90;;;;;;5013906;28;20030;-54
2023/08/28 00:47:10;;;;;;;4.45;1.13;;;14.60;99.90;;;;;;5013988;28;20515;-53
2023/08/28 00:49:36;;;;;;;3.00;1.40;;;14.60;99.90;;;;;;5013547;28;20075;-55
2023/08/28 00:52:02;;;;;;;3.47;1.08;;;14.60;99.90;;;;;;5013517;28;20438;-52
2023/08/28 00:54:27;;;;;;;4.15;1.27;;;14.60;99.90;;;;;;4997424;28;20032;-54
2023/08/28 00:56:57;;;;;;;7.10;1.05;;;14.60;99.90;;;;;;5013573;28;20021;-54
2023/08/28 00:59:23;;;;;;;2.13;1.77;;;14.60;99.90;;;;;;5013659;28;20423;-51
2023/08/28 01:01:48;;;;;;;1.60;1.27;;;14.60;99.90;;;;;;5013439;28;20120;-53
2023/08/28 01:04:14;;;;;;;4.78;1.50;;;14.70;99.90;;;;;;5013663;28;20036;-53
2023/08/28 01:06:45;;;;;;;4.97;1.60;;;14.50;99.90;;;;;;5013603;28;20056;-54
2023/08/28 01:09:15;;;;;;;2.28;1.33;;;14.40;99.90;;;;;;5013405;28;20048;-51
2023/08/28 01:12:09;;;;;;;3.47;1.33;;;14.40;99.90;;;;;;5013208;28;20021;-51
2023/08/28 01:14:56;;;;;;;1.75;1.30;;;14.30;99.90;;;;;;5013457;28;20026;-51
2023/08/28 01:17:24;;;;;;;1.80;1.10;;;14.20;99.90;;;;;;5031168;28;20029;-53
2023/08/28 01:19:50;;;;;;;1.25;1.10;;;14.20;99.90;;;;;;5013324;28;20116;-54
2023/08/28 01:22:49;;;;;;;1.23;1.13;;;14.10;99.90;;;;;;5013296;28;20025;-55
2023/08/28 01:25:15;;;;;;;3.53;1.10;;;14.10;99.90;;;;;;5032206;28;20029;-51
2023/08/28 01:27:41;;;;;;;2.28;1.05;;;14.20;99.90;;;;;;5013798;28;20033;-53
2023/08/28 01:30:14;;;;;;;1.77;1.27;;;14.20;99.90;;;;;;5013681;28;20025;-55
2023/08/28 01:32:42;;;;;;;3.22;1.13;;;14.20;99.90;;;;;;5013567;28;20098;-58
2023/08/28 01:35:24;;;;;;;2.30;1.40;;;14.20;99.90;;;;;;5013339;28;20025;-52
2023/08/28 01:38:21;;;;;;;2.55;1.00;;;14.10;99.90;;;;;;5013358;28;20020;-51
2023/08/28 01:41:05;;;;;;;11.52;1.92;;;14.10;99.90;;;;;;5013379;28;20086;-55
2023/08/28 01:43:38;;;;;;;3.05;1.42;;;14.10;99.90;;;;;;5017128;28;20017;-57
2023/08/28 01:46:04;;;;;;;1.23;1.13;;;14.00;99.90;;;;;;5017765;28;20025;-56
2023/08/28 01:48:33;;;;;;;4.15;1.20;;;14.00;99.90;;;;;;5016664;28;20029;-54
2023/08/28 01:50:58;;;;;;;2.72;1.30;;;14.00;99.90;;;;;;5016669;28;20125;-52
2023/08/28 01:53:26;;;;;;;1.20;1.10;;;13.90;99.90;;;;;;5016748;28;20045;-56
2023/08/28 01:56:16;;;;;;;6.43;1.40;;;13.90;99.90;;;;;;5016811;28;20022;-54
2023/08/28 01:58:47;;;;;;;2.05;1.35;;;13.70;99.90;;;;;;5016603;28;20030;-57
2023/08/28 02:01:12;;;;;;;2.85;0.80;;;13.60;99.90;;;;;;5000308;28;20025;-54
2023/08/28 02:03:39;;;;;;;4.22;1.35;;;13.70;99.90;;;;;;5016755;28;20520;-53
2023/08/28 02:06:05;;;;;;;2.13;1.23;;;13.70;99.90;;;;;;5016823;28;20033;-56
2023/08/28 02:08:31;;;;;;;3.13;1.20;;;13.70;99.90;;;;;;5016486;28;20025;-52
2023/08/28 02:10:56;;;;;;;2.03;1.58;;;13.70;99.90;;;;;;4999943;28;20028;-52
2023/08/28 02:13:22;;;;;;;2.03;1.15;;;13.80;99.90;;;;;;5016155;28;20033;-56
2023/08/28 02:15:48;;;;;;;1.48;1.35;;;13.80;99.90;;;;;;5016437;28;20481;-55
2023/08/28 02:18:13;;;;;;;2.85;1.10;;;13.80;99.90;;;;;;5016467;28;20160;-54
2023/08/28 02:20:39;;;;;;;3.35;1.17;;;13.80;99.90;;;;;;5016273;28;20028;-54
2023/08/28 02:23:05;;;;;;;2.55;1.10;;;13.80;99.90;;;;;;5016362;28;20036;-56
2023/08/28 02:25:30;;;;;;;1.30;1.05;;;13.80;99.90;;;;;;5016290;28;20108;-56
2023/08/28 02:27:57;;;;;;;7.78;1.45;;;13.80;99.90;;;;;;5016187;28;20492;-54
2023/08/28 02:30:23;;;;;;;1.95;1.38;;;13.80;99.90;;;;;;5016313;28;20025;-54
2023/08/28 02:32:48;;;;;;;1.52;1.02;;;13.80;99.90;;;;;;5016124;28;20021;-53
2023/08/28 02:35:14;;;;;;;2.83;1.13;;;13.80;99.90;;;;;;5016004;28;20076;-53
2023/08/28 02:37:40;;;;;;;2.45;1.20;;;13.80;99.90;;;;;;5016245;28;20025;-54
2023/08/28 02:40:06;;;;;;;1.75;0.98;;;13.80;99.90;;;;;;5015524;28;20508;-53
2023/08/28 02:42:32;;;;;;;2.38;1.10;;;13.80;99.90;;;;;;5016541;28;20090;-51
2023/08/28 02:44:58;;;;;;;0.82;0.80;;;13.80;99.90;;;;;;5016209;28;20026;-51
2023/08/28 02:47:23;;;;;;;1.77;0.95;;;13.80;99.90;;;;;;5016303;28;20144;-55
2023/08/28 02:49:49;;;;;;;4.38;1.30;;;13.80;99.90;;;;;;5015577;28;20022;-58
2023/08/28 02:52:15;;;;;;;3.45;1.40;;;13.90;99.90;;;;;;4999251;28;20108;-56
2023/08/28 02:54:40;;;;;;;1.67;1.30;;;13.80;99.90;;;;;;5014817;28;20044;-56
2023/08/28 02:57:06;;;;;;;2.88;1.10;;;13.80;99.90;;;;;;5015721;28;20022;-54
2023/08/28 02:59:32;;;;;;;3.47;1.13;;;13.70;99.90;;;;;;5015511;28;20026;-60
2023/08/28 03:01:57;;;;;;;3.53;1.58;;;13.70;99.90;;;;;;5015603;28;20396;-57
2023/08/28 03:04:23;;;;;;;1.63;1.40;;;13.60;99.90;;;;;;5015521;28;20029;-56
2023/08/28 03:06:49;;;;;;;1.38;1.20;;;13.50;99.90;;;;;;5015544;28;20493;-55
2023/08/28 03:09:14;;;;;;;5.65;1.20;;;13.50;99.90;;;;;;5032849;28;20034;-58
2023/08/28 03:11:40;;;;;;;1.90;1.27;;;13.40;99.90;;;;;;5015057;28;20025;-56
2023/08/28 03:14:06;;;;;;;6.88;1.73;;;13.40;99.90;;;;;;4999079;28;20025;-58
2023/08/28 03:16:31;;;;;;;3.58;1.42;;;13.30;99.90;;;;;;4983002;28;20489;-55
2023/08/28 03:18:57;;;;;;;2.10;1.10;;;13.40;99.90;;;;;;5033071;28;20033;-58
2023/08/28 03:21:22;;;;;;;7.10;1.83;;;13.40;99.90;;;;;;5014957;28;20025;-55
2023/08/28 03:23:48;;;;;;;7.72;1.70;;;13.40;99.90;;;;;;5015154;28;20026;-54
2023/08/28 03:26:13;;;;;;;3.90;1.38;;;13.40;99.90;;;;;;5015360;28;20025;-56
2023/08/28 03:28:39;;;;;;;1.80;1.60;;;13.40;99.90;;;;;;5014929;28;20033;-55
2023/08/28 03:31:05;;;;;;;2.70;1.30;;;13.40;99.90;;;;;;5014821;28;20029;-55
2023/08/28 03:33:31;;;;;;;1.27;1.17;;;13.50;99.90;;;;;;5015000;28;20025;-56
2023/08/28 03:35:57;;;;;;;4.57;1.50;;;13.50;99.90;;;;;;5015258;28;20508;-56
2023/08/28 03:38:22;;;;;;;3.08;1.30;;;13.60;99.90;;;;;;5014917;28;20497;-55
2023/08/28 03:40:48;;;;;;;3.58;1.40;;;13.60;99.90;;;;;;5014483;28;20240;-53
2023/08/28 03:43:13;;;;;;;2.60;1.30;;;13.60;99.90;;;;;;5014738;28;20030;-54
2023/08/28 03:45:40;;;;;;;3.17;1.35;;;13.70;99.90;;;;;;4998344;28;20124;-55
2023/08/28 03:48:06;;;;;;;3.90;1.75;;;13.70;99.90;;;;;;5014588;28;20048;-52
2023/08/28 03:50:32;;;;;;;2.78;1.52;;;13.60;99.90;;;;;;4981887;28;20389;-52
2023/08/28 03:52:59;;;;;;;3.83;1.40;;;13.70;99.90;;;;;;5014625;28;20025;-54
2023/08/28 03:55:27;;;;;;;2.38;1.48;;;13.70;99.90;;;;;;5014637;28;20067;-52
2023/08/28 03:57:53;;;;;;;1.63;1.42;;;13.70;99.90;;;;;;5014525;28;20022;-51
2023/08/28 04:00:19;;;;;;;4.35;1.40;;;13.70;99.90;;;;;;5014473;28;20032;-55
2023/08/28 04:02:46;;;;;;;2.60;1.63;;;13.70;99.90;;;;;;5014294;28;20112;-54
2023/08/28 04:05:13;;;;;;;1.38;1.20;;;13.60;99.90;;;;;;5014292;28;20026;-52
2023/08/28 04:07:40;;;;;;;5.57;1.65;;;13.60;99.90;;;;;;5014616;28;20385;-55
2023/08/28 04:10:06;;;;;;;2.83;1.02;;;13.60;99.90;;;;;;5014139;28;20428;-55
2023/08/28 04:12:32;;;;;;;2.35;1.40;;;13.60;99.90;;;;;;5014122;28;20037;-52
2023/08/28 04:14:58;;;;;;;2.83;1.88;;;13.50;99.90;;;;;;5014446;28;20025;-57
2023/08/28 04:17:24;;;;;;;3.08;1.10;;;13.60;99.90;;;;;;5014282;28;20389;-58
2023/08/28 04:19:51;;;;;;;4.05;1.38;;;13.60;99.90;;;;;;5014377;28;20080;-58
2023/08/28 04:22:17;;;;;;;1.45;1.35;;;13.60;99.90;;;;;;5013941;28;20562;-55
2023/08/28 04:24:44;;;;;;;1.65;1.52;;;13.50;99.90;;;;;;5014147;28;20051;-54
2023/08/28 04:27:10;;;;;;;2.03;1.52;;;13.60;99.90;;;;;;5014154;28;20032;-56
2023/08/28 04:29:35;;;;;;;2.75;1.30;;;13.60;99.90;;;;;;5014163;28;20025;-57
2023/08/28 04:32:01;;;;;;;7.30;2.05;;;13.50;99.90;;;;;;5013995;28;20116;-58
2023/08/28 04:34:26;;;;;;;3.72;1.90;;;13.50;99.90;;;;;;5014161;28;20071;-51
2023/08/28 04:36:52;;;;;;;1.52;1.27;;;13.40;99.90;;;;;;5013996;28;20021;-51
2023/08/28 04:39:17;;;;;;;1.85;1.48;;;13.40;99.90;;;;;;5013790;28;20096;-52
2023/08/28 04:41:43;;;;;;;4.55;1.48;;;13.40;99.90;;;;;;5013414;28;20034;-55
2023/08/28 04:44:10;;;;;;;4.10;1.67;;;13.30;99.90;;;;;;5013676;28;20055;-58
2023/08/28 04:46:36;;;;;;;4.63;1.63;;;13.30;99.90;;;;;;5013854;28;20021;-55
2023/08/28 04:49:01;;;;;;;2.13;1.70;;;13.20;99.90;;;;;;5031438;28;20027;-57
2023/08/28 04:51:27;;;;;;;7.45;1.75;;;13.20;99.90;;;;;;5013404;28;20520;-53
2023/08/28 04:53:52;;;;;;;3.47;1.70;;;13.10;99.90;;;;;;5014183;28;20041;-55
2023/08/28 04:56:18;;;;;;;4.78;1.90;;;13.10;99.90;;;;;;5013783;28;20037;-55
2023/08/28 04:58:43;;;;;;;2.63;1.50;;;13.00;99.90;;;;;;5013740;28;20021;-52
2023/08/28 05:01:09;;;;;;;5.32;2.10;;;13.10;99.90;;;;;;5013635;28;20033;-53
2023/08/28 05:03:35;;;;;;;2.38;1.77;;;13.10;99.90;;;;;;5013985;28;20029;-52
2023/08/28 05:06:00;;;;;;;3.10;1.88;;;13.20;99.90;;;;;;5013940;28;20029;-56
2023/08/28 05:08:26;;;;;;;3.83;1.65;;;13.20;99.90;;;;;;5013705;28;20064;-58
2023/08/28 05:10:52;;;;;;;3.13;1.58;;;13.30;99.90;;;;;;5013576;28;20485;-54
2023/08/28 05:13:17;;;;;;;1.80;1.40;;;13.30;99.90;;;;;;5013418;28;20063;-49
2023/08/28 05:15:43;;;;;;;1.52;1.42;;;13.40;99.90;;;;;;5014179;28;20112;-53
2023/08/28 05:18:11;;;;;;;4.30;1.83;;;13.40;99.90;;;;;;5015765;28;20033;-53
2023/08/28 05:20:37;;;;;;;2.75;1.52;;;13.50;99.90;;;;;;5017138;28;20032;-51
2023/08/28 05:23:03;;;;;;;4.82;1.20;;;13.60;99.90;;;;;;5017262;28;20116;-55
2023/08/28 05:25:29;;;;;;;1.70;1.60;;;13.60;99.90;;;;;;5017343;28;20035;-54
2023/08/28 05:27:55;;;;;;;4.40;1.45;;;13.70;99.90;;;;;;5016996;28;20033;-51
2023/08/28 05:30:20;;;;;;;2.08;1.23;;;13.70;99.90;;;;;;5017210;28;20029;-53
2023/08/28 05:32:46;;;;;;;3.20;1.42;;;13.80;99.90;;;;;;5017094;28;20217;-51
2023/08/28 05:35:12;;;;;;;2.90;1.40;;;13.80;99.90;;;;;;5017222;28;20045;-52
2023/08/28 05:37:37;;;;;;;3.28;1.38;;;13.90;99.90;;;;;;5017194;28;20018;-52
2023/08/28 05:40:04;;;;;;;2.00;1.85;;;13.90;99.90;;;;;;5016957;28;20045;-49
2023/08/28 05:42:30;;;;;;;5.05;2.50;;;13.90;99.90;;;;;;5016804;28;20060;-55
2023/08/28 05:44:56;;;;;;;5.28;1.65;;;13.90;99.90;;;;;;5016952;28;20033;-56
2023/08/28 05:47:22;;;;;;;3.88;1.95;;;13.90;99.90;;;;;;5016965;28;20041;-55
2023/08/28 05:49:47;;;;;;;3.72;1.70;;;13.80;99.90;;;;;;5016841;28;20032;-53
2023/08/28 05:52:13;;;;;;;1.83;1.35;;;13.90;99.90;;;;;;5016653;28;20301;-57
2023/08/28 05:54:39;;;;;;;7.75;1.48;;;13.90;99.90;;;;;;5016725;28;20079;-50
2023/08/28 05:57:05;;;;;;;1.45;1.35;;;13.90;99.90;;;;;;5016713;28;20024;-53
2023/08/28 05:59:30;;;;;;;6.68;1.75;;;13.90;99.90;;;;;;5034252;28;20087;-54
2023/08/28 06:01:56;;;;;;;3.88;2.00;;;14.00;99.90;;;;;;5016601;28;20432;-56
2023/08/28 06:04:21;;;;;;;3.67;1.77;;;14.00;99.90;;;;;;5016574;28;20045;-53
2023/08/28 06:06:47;;;;;;;3.25;1.92;;;14.10;99.90;;;;;;5016710;28;20026;-53
2023/08/28 06:09:12;;;;;;;3.65;2.00;;;14.10;99.90;;;;;;5016291;28;20116;-56
2023/08/28 06:11:38;;;;;;;3.17;1.88;;;14.10;99.90;;;;;;5041318;22;20122;-57
2023/08/28 06:14:03;;;;;;;8.25;2.25;;;14.00;99.90;;;;;;5029528;28;20121;-61
2023/08/28 06:16:29;;;;;;;3.88;2.28;;;13.90;99.90;;;;;;5032784;28;20030;-61
2023/08/28 06:18:55;;;;;;;6.35;2.13;;;14.00;99.90;;;;;;5032713;28;20022;-62
2023/08/28 06:21:20;;;;;;;2.38;2.17;;;14.00;99.90;;;;;;5032818;28;20074;-62
2023/08/28 06:23:46;;;;;;;2.85;2.55;;;14.10;99.90;;;;;;5032646;28;20033;-61
2023/08/28 06:26:11;;;;;;;2.92;2.60;;;14.20;99.90;;;;;;5032588;28;20467;-59
2023/08/28 06:28:37;;;;;;;6.35;3.03;;;14.30;99.90;;;;;;5031408;28;20109;-61
2023/08/28 06:31:03;;;;;;;5.43;2.88;;;14.40;99.90;;;;;;5032050;28;20484;-61
2023/08/28 06:33:28;;;;;;;3.63;2.95;;;14.50;99.90;;;;;;5032388;28;20014;-62
2023/08/28 06:35:54;;;;;;;5.07;2.60;;;14.60;99.90;;;;;;5032383;28;20481;-60
2023/08/28 06:38:20;;;;;;;3.53;2.47;;;14.60;99.90;;;;;;5032295;28;20037;-60
2023/08/28 06:40:52;;;;;;;5.85;3.05;;;14.50;99.90;;;;;;5031759;28;20032;-62
2023/08/28 06:43:18;;;;;;;9.02;3.20;;;14.50;99.90;;;;;;5032248;28;20515;-59
2023/08/28 06:45:47;;;;;;;3.40;3.10;;;14.50;99.90;;;;;;5032157;28;20030;-60
2023/08/28 06:48:13;;;;;;;9.70;3.90;;;14.50;99.90;;;;;;5032173;28;20102;-62
2023/08/28 06:50:38;;;;;;;3.95;2.72;;;14.50;99.90;;;;;;5031837;28;20022;-60
2023/08/28 06:53:04;;;;;;;7.22;3.40;;;14.40;99.90;;;;;;5031991;28;20026;-60
2023/08/28 06:55:32;;;;;;;5.38;3.08;;;14.40;99.90;;;;;;5032004;28;20029;-62
2023/08/28 06:57:58;;;;;;;5.35;3.22;;;14.30;99.90;;;;;;5032107;28;20052;-62
2023/08/28 07:00:23;;;;;;;4.82;3.08;;;14.30;99.90;;;;;;5031735;28;20021;-57
2023/08/28 07:02:49;;;;;;;7.43;3.00;;;14.20;99.90;;;;;;5032067;28;20431;-61
2023/08/28 07:05:15;;;;;;;6.65;3.20;;;14.30;99.90;;;;;;5031887;28;20444;-62
2023/08/28 07:07:40;;;;;;;6.70;3.25;;;14.30;99.90;;;;;;5031760;28;20087;-62
2023/08/28 07:10:06;;;;;;;4.95;3.13;;;14.30;99.90;;;;;;5031508;28;20029;-61
2023/08/28 07:12:33;;;;;;;7.30;3.15;;;14.30;99.90;;;;;;5031115;28;20029;-61
2023/08/28 07:15:11;;;;;;;4.55;3.30;;;14.40;99.90;;;;;;5031672;28;20026;-62
2023/08/28 07:17:37;;;;;;;2.95;2.53;;;14.30;99.90;;;;;;5031796;28;20412;-59
2023/08/28 07:20:04;;;;;;;5.85;2.92;;;14.30;99.90;;;;;;5031578;28;20394;-60
2023/08/28 07:22:30;;;;;;;5.90;2.78;;;14.30;99.90;;;;;;5031355;28;20089;-62
2023/08/28 07:24:56;;;;;;;7.40;2.88;;;14.30;99.90;;;;;;5031593;28;20397;-62
2023/08/28 07:27:22;;;;;;;9.68;3.20;;;14.30;99.90;;;;;;5031519;28;20021;-61
2023/08/28 07:29:47;;;;;;;6.28;3.47;;;14.20;99.90;;;;;;5031277;28;20083;-61
2023/08/28 07:32:13;;;;;;;5.03;3.45;;;14.10;99.90;;;;;;5031075;28;20021;-61
2023/08/28 07:34:38;;;;;;;4.78;3.70;;;14.10;99.90;;;;;;5031171;28;20021;-62
2023/08/28 07:37:04;;;;;;;7.85;4.50;;;14.10;99.90;;;;;;5031310;28;20071;-60
2023/08/28 07:39:30;;;;;;;5.00;4.50;;;14.00;99.90;;;;;;5031101;28;20485;-60
2023/08/28 07:41:59;;;;;;;8.30;4.47;;;14.10;99.90;;;;;;5030462;28;20021;-61
2023/08/28 07:44:25;;;;;;;6.47;4.00;;;14.20;99.90;;;;;;5030990;28;20030;-60
2023/08/28 07:46:50;;;;;;;5.40;4.90;;;14.30;99.90;;;;;;5031104;28;20026;-61
2023/08/28 07:49:16;;;;;;;7.65;4.70;;;14.40;99.90;;;;;;5026412;28;20048;-61
2023/08/28 07:51:42;;;;;;;11.40;5.65;;;14.40;99.90;;;;;;5002042;28;20029;-62
2023/08/28 07:54:08;;;;;;;9.32;4.75;;;14.40;99.90;;;;;;5003946;28;20068;-56
2023/08/28 07:56:33;;;;;;;5.88;4.50;;;14.50;99.90;;;;;;5030832;28;20108;-57
2023/08/28 07:58:59;;;;;;;7.68;4.80;;;14.60;99.90;;;;;;5030948;28;20109;-59
2023/08/28 08:01:24;;;;;;;6.72;4.15;;;14.60;99.90;;;;;;5013670;28;20026;-58
2023/08/28 08:03:50;;;;;;;10.30;4.30;;;14.70;99.90;;;;;;5032129;28;20021;-59
2023/08/28 08:06:17;;;;;;;6.47;4.55;;;14.70;99.90;;;;;;5013998;28;20051;-60
2023/08/28 08:08:45;;;;;;;7.65;4.78;;;14.90;99.90;;;;;;5014229;28;20032;-59
2023/08/28 08:11:11;;;;;;;6.60;4.88;;;14.90;99.90;;;;;;5014183;28;20511;-59
2023/08/28 08:13:36;;;;;;;5.28;4.78;;;14.90;99.90;;;;;;5013883;28;20033;-60
2023/08/28 08:16:02;;;;;;;7.85;5.43;;;15.00;99.90;;;;;;5014148;28;20028;-54
2023/08/28 08:18:27;;;;;;;10.52;5.45;;;15.10;99.90;;;;;;5013780;28;20022;-57
2023/08/28 08:20:53;;;;;;;10.25;6.05;;;15.20;99.90;;;;;;5013423;28;20519;-54
2023/08/28 08:23:19;;;;;;;8.52;5.22;;;15.30;99.90;;;;;;5013745;28;20116;-59
2023/08/28 08:25:44;;;;;;;6.90;4.95;;;15.40;99.90;;;;;;5013786;28;20032;-57
2023/08/28 08:28:10;;;;;;;11.88;5.35;;;15.70;99.90;;;;;;5014013;28;20454;-55
2023/08/28 08:30:35;;;;;;;7.25;4.93;;;15.70;99.90;;;;;;5013531;28;20401;-61
2023/08/28 08:33:01;;;;;;;7.82;5.20;;;15.60;99.90;;;;;;5013747;28;20389;-61
2023/08/28 08:35:28;;;;;;;9.27;5.40;;;15.50;99.90;;;;;;5013810;28;20504;-61
2023/08/28 08:37:53;;;;;;;8.45;5.35;;;15.60;99.90;;;;;;5013735;28;20026;-60
2023/08/28 08:40:24;;;;;;;8.85;4.50;;;15.50;99.90;;;;;;5013548;28;20108;-61
2023/08/28 08:42:50;;;;;;;5.88;4.45;;;15.60;99.90;;;;;;5013491;28;20087;-60
2023/08/28 08:45:15;;;;;;;6.18;4.55;;;15.60;99.90;;;;;;5013728;28;20540;-59
2023/08/28 08:47:45;;;;;;;7.93;4.72;;;15.70;99.90;;;;;;5031382;28;20026;-61
2023/08/28 08:50:13;;;;;;;8.18;4.38;;;15.90;99.90;;;;;;5013262;28;20038;-62
2023/08/28 08:52:42;;;;;;;9.98;5.00;;;16.00;99.90;;;;;;5011521;28;20022;-59
2023/08/28 08:55:30;;;;;;;6.20;4.30;;;16.10;99.90;;;;;;5013482;28;20034;-60
2023/08/28 08:58:01;;;;;;;7.90;3.50;;;16.20;99.90;;;;;;5013163;28;20029;-58
2023/08/28 09:00:26;;;;;;;5.53;3.65;;;16.30;99.90;;;;;;5013172;28;20057;-60
2023/08/28 09:02:53;;;;;;;10.18;3.70;;;16.20;99.90;;;;;;5013493;28;20021;-60
2023/08/28 09:05:19;;;;;;;8.93;3.63;;;16.30;99.90;;;;;;5030873;28;20041;-60
2023/08/28 09:07:46;;;;;;;8.27;3.65;;;16.40;99.90;;;;;;5013750;28;20026;-60
2023/08/28 09:10:14;;;;;;;10.77;4.00;;;16.40;99.90;;;;;;5013239;28;20029;-55
2023/08/28 09:12:41;;;;;;;5.20;3.53;;;16.40;99.90;;;;;;5013243;28;20060;-58
2023/08/28 09:15:07;;;;;;;9.25;4.18;;;16.50;99.90;;;;;;5013457;28;20091;-60
2023/08/28 09:17:39;;;;;;;5.55;3.85;;;16.60;99.90;;;;;;5013049;28;20025;-62
2023/08/28 09:20:23;;;;;;;5.80;3.80;;;16.60;99.90;;;;;;5013463;28;20576;-61
2023/08/28 09:22:50;;;;;;;3.65;2.97;;;16.70;99.90;;;;;;5002653;28;20403;-60
2023/08/28 09:25:17;;;;;;;7.45;3.10;;;16.80;99.90;;;;;;5020617;28;20033;-61
2023/08/28 09:27:44;;;;;;;6.75;2.97;;;16.80;99.90;;;;;;5027324;28;20392;-62
2023/08/28 09:30:25;;;;;;;5.07;3.00;;;16.70;99.90;;;;;;5000405;28;20515;-60
2023/08/28 09:32:51;;;;;;;9.32;3.08;;;16.70;99.90;;;;;;5012449;28;20025;-61
2023/08/28 09:35:19;;;;;;;8.20;3.13;;;16.70;99.90;;;;;;4998488;28;20018;-62
2023/08/28 09:37:54;;;;;;;4.40;2.78;;;16.80;99.90;;;;;;5010508;28;20015;-59
2023/08/28 09:40:29;;;;;;;6.05;2.60;;;16.80;99.90;;;;;;5010805;28;20029;-60
2023/08/28 09:42:55;;;;;;;3.10;2.42;;;16.80;99.90;;;;;;4999638;28;20029;-59
2023/08/28 09:45:21;;;;;;;5.50;1.92;;;16.90;99.90;;;;;;5012247;28;20036;-60
2023/08/28 09:47:52;;;;;;;4.40;2.53;;;16.80;99.90;;;;;;4995954;28;20098;-60
2023/08/28 09:50:23;;;;;;;7.07;2.50;;;16.90;99.90;;;;;;5012481;28;20511;-60
2023/08/28 09:52:49;;;;;;;2.95;2.63;;;17.00;99.90;;;;;;5012575;28;20083;-59
2023/08/28 09:55:14;;;;;;;3.72;2.35;;;17.00;99.90;;;;;;5011547;28;20556;-57
2023/08/28 09:57:43;;;;;;;3.50;2.70;;;17.00;99.90;;;;;;5011809;28;20048;-59
2023/08/28 10:00:11;;;;;;;69.78;43.15;;;17.00;99.90;;;;;;5012252;28;20036;-62
2023/08/28 10:02:38;;;;;;;108.38;66.70;;;17.10;99.90;;;;;;5011640;28;20030;-61
2023/08/28 10:05:05;;;;;;;13.40;8.15;;;17.10;99.90;;;;;;5015818;28;20121;-62
2023/08/28 10:07:32;;;;;;;4.05;2.97;;;17.20;99.90;;;;;;5004054;28;20111;-52
2023/08/28 10:09:59;;;;;;;3.40;2.35;;;17.30;99.90;;;;;;5013783;28;20466;-54
2023/08/28 10:12:28;;;;;;;10.43;2.67;;;17.30;99.90;;;;;;4996115;28;20577;-59
2023/08/28 10:14:54;;;;;;;5.05;2.92;;;17.40;99.90;;;;;;5013562;28;20010;-57
2023/08/28 10:17:24;;;;;;;4.45;2.70;;;17.50;99.90;;;;;;5005267;28;20025;-59
2023/08/28 10:19:58;;;;;;;6.28;2.53;;;17.70;99.90;;;;;;5033349;28;20326;-64
2023/08/28 10:22:25;;;;;;;5.10;2.80;;;17.90;99.90;;;;;;5015623;28;20045;-58
2023/08/28 10:24:52;;;;;;;4.03;3.08;;;17.90;99.90;;;;;;5015427;28;20037;-54
2023/08/28 10:27:19;;;;;;;3.90;2.97;;;18.00;99.90;;;;;;5033218;28;20021;-54
2023/08/28 10:29:49;;;;;;;4.45;2.75;;;18.00;99.90;;;;;;5003626;28;20034;-62
2023/08/28 10:32:15;;;;;;;4.93;2.50;;;18.00;99.90;;;;;;5015355;28;20036;-57
2023/08/28 10:34:44;;;;;;;3.90;3.30;;;18.00;99.90;;;;;;5015381;28;20025;-60
2023/08/28 10:37:11;;;;;;;4.15;2.72;;;18.10;99.90;;;;;;5014885;28;20026;-61
2023/08/28 10:39:42;;;;;;;6.72;3.63;;;18.20;99.90;;;;;;5015154;28;20041;-60
2023/08/28 10:42:15;;;;;;;5.75;3.15;;;18.20;99.90;;;;;;5033305;28;20017;-61
2023/08/28 10:44:42;;;;;;;7.20;2.92;;;18.30;99.90;;;;;;5014946;28;20029;-58
2023/08/28 10:47:07;;;;;;;4.45;2.15;;;18.30;99.90;;;;;;5013855;28;20034;-61
2023/08/28 10:49:34;;;;;;;3.42;2.10;;;18.30;99.90;;;;;;5002614;28;20036;-58
2023/08/28 10:52:02;;;;;;;5.15;2.05;;;18.40;99.90;;;;;;5013776;28;20079;-63
2023/08/28 10:54:42;;;;;;;26.00;13.70;;;18.50;99.90;;;;;;5012889;28;20053;-61
2023/08/28 10:57:24;;;;;;;35.88;24.52;;;18.50;99.90;;;;;;5013104;28;20026;-61
2023/08/28 10:59:51;;;;;;;4.53;1.85;;;18.50;99.90;;;;;;5012908;28;20512;-63
2023/08/28 11:02:18;;;;;;;4.63;1.92;;;18.40;99.90;;;;;;5012301;28;20030;-57
2023/08/28 11:04:44;;;;;;;5.95;2.08;;;18.50;99.90;;;;;;5014470;28;20183;-62
2023/08/28 11:07:22;;;;;;;8.85;1.73;;;18.60;99.90;;;;;;5014542;28;20116;-57
2023/08/28 11:09:48;;;;;;;6.28;1.67;;;18.60;99.90;;;;;;5014217;28;20061;-63
2023/08/28 11:12:15;;;;;;;3.17;1.77;;;18.70;99.90;;;;;;5013859;28;20048;-63
2023/08/28 11:14:43;;;;;;;1.52;1.42;;;18.60;99.90;;;;;;5014068;28;20022;-62
2023/08/28 11:17:09;;;;;;;3.10;1.70;;;18.70;99.90;;;;;;5014694;28;20021;-64
2023/08/28 11:19:55;;;;;;;4.35;1.60;;;18.40;99.90;;;;;;5014571;28;20025;-62
2023/08/28 11:22:41;;;;;;;3.53;1.40;;;18.30;99.90;;;;;;4997101;28;20045;-59
2023/08/28 11:25:30;;;;;;;2.58;1.50;;;18.20;99.90;;;;;;5031582;28;20029;-60
2023/08/28 11:27:59;;;;;;;3.15;1.52;;;18.30;99.90;;;;;;5031505;28;20056;-58
2023/08/28 11:30:25;;;;;;;4.30;1.88;;;18.30;99.90;;;;;;5013857;28;20034;-57
2023/08/28 11:32:54;;;;;;;4.65;1.38;;;18.50;99.90;;;;;;5013977;28;20022;-63
2023/08/28 11:35:21;;;;;;;2.85;1.48;;;18.60;99.90;;;;;;5013931;28;20037;-62
2023/08/28 11:37:50;;;;;;;2.15;1.58;;;18.60;99.90;;;;;;5014234;28;20021;-59
2023/08/28 11:40:26;;;;;;;3.47;1.10;;;18.60;99.90;;;;;;5014488;28;20025;-65
2023/08/28 11:43:08;;;;;;;4.10;1.30;;;18.80;99.90;;;;;;5014084;28;20036;-60
2023/08/28 11:45:34;;;;;;;7.85;1.17;;;18.70;99.90;;;;;;5013687;28;20029;-57
2023/08/28 11:48:04;;;;;;;2.17;0.93;;;18.60;99.90;;;;;;5013720;28;20033;-58
2023/08/28 11:50:29;;;;;;;1.05;0.95;;;18.50;99.90;;;;;;5013590;28;20401;-58
2023/08/28 11:52:55;;;;;;;4.55;1.15;;;18.60;99.90;;;;;;5013877;28;20021;-58
2023/08/28 11:55:22;;;;;;;6.43;1.48;;;18.60;99.90;;;;;;5013491;28;20064;-60
2023/08/28 11:57:50;;;;;;;1.80;0.95;;;18.80;99.90;;;;;;5014005;28;20117;-61
2023/08/28 12:00:16;;;;;;;1.70;1.27;;;18.90;99.90;;;;;;5013600;28;20029;-61
2023/08/28 12:02:44;;;;;;;1.38;1.30;;;18.90;99.90;;;;;;5013515;28;20378;-62
2023/08/28 12:05:10;;;;;;;1.45;1.30;;;18.70;99.90;;;;;;5013450;28;20064;-64
2023/08/28 12:07:36;;;;;;;2.45;1.17;;;18.60;99.90;;;;;;5013763;28;20025;-61
2023/08/28 12:10:03;;;;;;;3.33;1.25;;;18.60;99.90;;;;;;5013064;28;20075;-60
2023/08/28 12:12:29;;;;;;;0.88;0.80;;;18.80;99.90;;;;;;5035520;22;20077;-53
2023/08/28 12:14:55;;;;;;;2.58;1.20;;;19.00;99.90;;;;;;5029364;28;20591;-57
2023/08/28 12:17:26;;;;;;;2.63;1.08;;;18.90;99.90;;;;;;4999659;28;20065;-63
2023/08/28 12:19:52;;;;;;;1.50;1.00;;;19.10;99.90;;;;;;5005102;28;20052;-60
2023/08/28 12:22:21;;;;;;;0.93;0.93;;;19.20;99.90;;;;;;5013711;28;20056;-61
2023/08/28 12:24:49;;;;;;;2.50;1.30;;;19.10;99.90;;;;;;4996786;28;20033;-60
2023/08/28 12:27:16;;;;;;;28.42;18.95;;;19.10;99.90;;;;;;4994192;28;20053;-58
2023/08/28 12:29:42;;;;;;;2.20;2.00;;;19.30;99.90;;;;;;4993741;28;20088;-52
2023/08/28 12:32:15;;;;;;;2.85;1.50;;;19.20;99.90;;;;;;4993796;28;20030;-54
2023/08/28 12:34:42;;;;;;;1.55;1.10;;;19.30;99.90;;;;;;4993786;28;20112;-58
2023/08/28 12:37:11;;;;;;;3.08;1.45;;;19.30;99.90;;;;;;5001384;28;20033;-54
2023/08/28 12:39:45;;;;;;;1.60;1.50;;;19.40;99.90;;;;;;5013198;28;20025;-55
2023/08/28 12:42:11;;;;;;;1.20;1.13;;;19.30;99.90;;;;;;5013032;28;20025;-55
2023/08/28 12:44:37;;;;;;;3.78;0.88;;;19.50;99.90;;;;;;5013032;28;20044;-53
2023/08/28 12:47:03;;;;;;;2.50;1.10;;;19.50;99.90;;;;;;5013002;28;20137;-56